sensor_id;sensor_type;location;lat;lon;timestamp;pressure;altitude;pressure_sealevel;temperature;humidity
29903;BME280;30288;50.514;9.678;2023-11-18T00:01:48;99574.50;;;-2.50;100.00
29903;BME280;30288;50.514;9.678;2023-11-18T00:03:54;99577.66;;;-2.54;100.00
29903;BME280;30288;50.514;9.678;2023-11-18T00:06:00;99579.34;;;-2.53;100.00
29903;BME280;30288;50.514;9.678;2023-11-18T00:08:06;99579.56;;;-2.47;100.00
29903;BME280;30288;50.514;9.678;2023-11-18T00:10:12;99589.31;;;-2.50;100.00
29903;BME280;30288;50.514;9.678;2023-11-18T00:12:17;99578.38;;;-2.35;100.00
29903;BME280;30288;50.514;9.678;2023-11-18T00:14:23;99583.25;;;-2.36;100.00
29903;BME280;30288;50.514;9.678;2023-11-18T00:16:28;99586.28;;;-2.43;100.00
29903;BME280;30288;50.514;9.678;2023-11-18T00:18:34;99582.31;;;-2.40;100.00
29903;BME280;30288;50.514;9.678;2023-11-18T00:20:36;99581.38;;;-2.43;100.00
29903;BME280;30288;50.514;9.678;2023-11-18T00:22:41;99579.78;;;-2.41;100.00
29903;BME280;30288;50.514;9.678;2023-11-18T00:24:47;99576.53;;;-2.40;100.00
29903;BME280;30288;50.514;9.678;2023-11-18T00:26:55;99572.28;;;-2.44;100.00
29903;BME280;30288;50.514;9.678;2023-11-18T00:29:00;99570.94;;;-2.36;100.00
29903;BME280;30288;50.514;9.678;2023-11-18T00:31:06;99565.31;;;-2.32;100.00
29903;BME280;30288;50.514;9.678;2023-11-18T00:33:11;99567.13;;;-2.28;100.00
29903;BME280;30288;50.514;9.678;2023-11-18T00:35:17;99566.56;;;-2.21;100.00
29903;BME280;30288;50.514;9.678;2023-11-18T00:37:19;99569.75;;;-2.24;100.00
29903;BME280;30288;50.514;9.678;2023-11-18T00:39:25;99566.16;;;-2.32;100.00
29903;BME280;30288;50.514;9.678;2023-11-18T00:41:30;99568.34;;;-2.39;100.00
29903;BME280;30288;50.514;9.678;2023-11-18T00:43:38;99572.81;;;-2.51;100.00
29903;BME280;30288;50.514;9.678;2023-11-18T00:45:43;99577.53;;;-2.57;100.00
29903;BME280;30288;50.514;9.678;2023-11-18T00:47:49;99578.22;;;-2.61;100.00
29903;BME280;30288;50.514;9.678;2023-11-18T00:49:52;99578.84;;;-2.66;100.00
29903;BME280;30288;50.514;9.678;2023-11-18T00:51:58;99577.88;;;-2.48;100.00
29903;BME280;30288;50.514;9.678;2023-11-18T00:54:04;99568.13;;;-2.45;100.00
29903;BME280;30288;50.514;9.678;2023-11-18T00:56:15;99570.66;;;-2.44;100.00
29903;BME280;30288;50.514;9.678;2023-11-18T00:58:20;99585.81;;;-2.55;100.00
29903;BME280;30288;50.514;9.678;2023-11-18T01:00:29;99579.78;;;-2.63;100.00
29903;BME280;30288;50.514;9.678;2023-11-18T01:02:35;99576.97;;;-2.50;100.00
29903;BME280;30288;50.514;9.678;2023-11-18T01:04:41;99582.03;;;-2.47;100.00
29903;BME280;30288;50.514;9.678;2023-11-18T01:06:49;99585.03;;;-2.32;100.00
29903;BME280;30288;50.514;9.678;2023-11-18T01:08:55;99586.63;;;-2.34;100.00
29903;BME280;30288;50.514;9.678;2023-11-18T01:11:00;99601.81;;;-2.46;100.00
29903;BME280;30288;50.514;9.678;2023-11-18T01:13:03;99608.34;;;-2.46;100.00
29903;BME280;30288;50.514;9.678;2023-11-18T01:15:09;99604.56;;;-2.38;100.00
29903;BME280;30288;50.514;9.678;2023-11-18T01:17:16;99606.06;;;-2.42;100.00
29903;BME280;30288;50.514;9.678;2023-11-18T01:19:25;99610.63;;;-2.52;100.00
29903;BME280;30288;50.514;9.678;2023-11-18T01:21:30;99616.00;;;-2.40;100.00
29903;BME280;30288;50.514;9.678;2023-11-18T01:23:36;99606.38;;;-2.34;100.00
29903;BME280;30288;50.514;9.678;2023-11-18T01:25:45;99607.81;;;-2.39;100.00
29903;BME280;30288;50.514;9.678;2023-11-18T01:27:53;99612.97;;;-2.33;100.00
29903;BME280;30288;50.514;9.678;2023-11-18T01:30:00;99617.53;;;-2.42;100.00
29903;BME280;30288;50.514;9.678;2023-11-18T01:32:06;99608.75;;;-2.58;100.00
29903;BME280;30288;50.514;9.678;2023-11-18T01:34:17;99608.22;;;-2.72;100.00
29903;BME280;30288;50.514;9.678;2023-11-18T01:36:24;99609.66;;;-2.77;100.00
29903;BME280;30288;50.514;9.678;2023-11-18T01:38:29;99606.66;;;-2.70;100.00
29903;BME280;30288;50.514;9.678;2023-11-18T01:40:35;99607.06;;;-2.80;100.00
29903;BME280;30288;50.514;9.678;2023-11-18T01:42:42;99602.69;;;-2.87;100.00
29903;BME280;30288;50.514;9.678;2023-11-18T01:44:49;99595.97;;;-2.91;100.00
29903;BME280;30288;50.514;9.678;2023-11-18T01:46:55;99604.97;;;-2.71;100.00
29903;BME280;30288;50.514;9.678;2023-11-18T01:49:01;99610.69;;;-2.72;100.00
29903;BME280;30288;50.514;9.678;2023-11-18T01:51:10;99607.03;;;-2.81;100.00
29903;BME280;30288;50.514;9.678;2023-11-18T01:53:12;99608.09;;;-2.75;100.00
29903;BME280;30288;50.514;9.678;2023-11-18T01:55:18;99603.84;;;-2.79;100.00
29903;BME280;30288;50.514;9.678;2023-11-18T01:57:24;99606.28;;;-2.79;100.00
29903;BME280;30288;50.514;9.678;2023-11-18T01:59:29;99607.88;;;-2.81;100.00
29903;BME280;30288;50.514;9.678;2023-11-18T02:01:35;99613.41;;;-2.86;100.00
29903;BME280;30288;50.514;9.678;2023-11-18T02:03:45;99607.97;;;-2.98;100.00
29903;BME280;30288;50.514;9.678;2023-11-18T02:05:51;99611.84;;;-3.05;100.00
29903;BME280;30288;50.514;9.678;2023-11-18T02:08:00;99605.31;;;-3.03;100.00
29903;BME280;30288;50.514;9.678;2023-11-18T02:10:08;99612.63;;;-2.85;100.00
29903;BME280;30288;50.514;9.678;2023-11-18T02:12:25;99612.19;;;-2.96;100.00
29903;BME280;30288;50.514;9.678;2023-11-18T02:14:33;99609.38;;;-3.05;100.00
29903;BME280;30288;50.514;9.678;2023-11-18T02:16:40;99602.44;;;-2.93;100.00
29903;BME280;30288;50.514;9.678;2023-11-18T02:18:48;99604.13;;;-2.92;100.00
29903;BME280;30288;50.514;9.678;2023-11-18T02:20:56;99605.47;;;-3.00;100.00
29903;BME280;30288;50.514;9.678;2023-11-18T02:23:04;99621.31;;;-3.14;100.00
29903;BME280;30288;50.514;9.678;2023-11-18T02:25:16;99618.06;;;-3.13;100.00
29903;BME280;30288;50.514;9.678;2023-11-18T02:27:24;99620.13;;;-3.03;100.00
29903;BME280;30288;50.514;9.678;2023-11-18T02:29:34;99628.16;;;-3.07;100.00
29903;BME280;30288;50.514;9.678;2023-11-18T02:31:38;99623.13;;;-3.10;100.00
29903;BME280;30288;50.514;9.678;2023-11-18T02:33:50;99626.38;;;-3.11;100.00
29903;BME280;30288;50.514;9.678;2023-11-18T02:36:03;99626.72;;;-3.02;100.00
29903;BME280;30288;50.514;9.678;2023-11-18T02:38:11;99621.69;;;-2.84;100.00
29903;BME280;30288;50.514;9.678;2023-11-18T02:40:20;99623.47;;;-2.80;100.00
29903;BME280;30288;50.514;9.678;2023-11-18T02:42:31;99629.16;;;-2.83;100.00
29903;BME280;30288;50.514;9.678;2023-11-18T02:44:37;99631.78;;;-2.99;100.00
29903;BME280;30288;50.514;9.678;2023-11-18T02:46:44;99630.56;;;-3.09;100.00
29903;BME280;30288;50.514;9.678;2023-11-18T02:48:47;99633.56;;;-3.16;100.00
29903;BME280;30288;50.514;9.678;2023-11-18T02:50:56;99631.88;;;-3.17;100.00
29903;BME280;30288;50.514;9.678;2023-11-18T02:53:02;99631.19;;;-3.14;100.00
29903;BME280;30288;50.514;9.678;2023-11-18T02:55:08;99622.16;;;-2.93;100.00
29903;BME280;30288;50.514;9.678;2023-11-18T02:57:12;99619.78;;;-2.91;100.00
29903;BME280;30288;50.514;9.678;2023-11-18T02:59:20;99616.09;;;-3.01;100.00
29903;BME280;30288;50.514;9.678;2023-11-18T03:01:25;99617.84;;;-3.19;100.00
29903;BME280;30288;50.514;9.678;2023-11-18T03:03:30;99620.81;;;-3.26;100.00
29903;BME280;30288;50.514;9.678;2023-11-18T03:05:36;99620.03;;;-3.25;100.00
29903;BME280;30288;50.514;9.678;2023-11-18T03:07:42;99620.56;;;-3.32;100.00
29903;BME280;30288;50.514;9.678;2023-11-18T03:09:50;99619.00;;;-3.30;100.00
29903;BME280;30288;50.514;9.678;2023-11-18T03:11:55;99613.13;;;-3.34;100.00
29903;BME280;30288;50.514;9.678;2023-11-18T03:14:02;99615.25;;;-3.41;100.00
29903;BME280;30288;50.514;9.678;2023-11-18T03:16:10;99617.47;;;-3.28;100.00
29903;BME280;30288;50.514;9.678;2023-11-18T03:18:16;99618.88;;;-3.33;100.00
29903;BME280;30288;50.514;9.678;2023-11-18T03:20:24;99619.97;;;-3.27;100.00
29903;BME280;30288;50.514;9.678;2023-11-18T03:22:30;99620.97;;;-3.23;100.00
29903;BME280;30288;50.514;9.678;2023-11-18T03:24:33;99613.81;;;-3.36;100.00
29903;BME280;30288;50.514;9.678;2023-11-18T03:26:39;99612.13;;;-3.37;100.00
29903;BME280;30288;50.514;9.678;2023-11-18T03:28:44;99611.75;;;-3.46;100.00
29903;BME280;30288;50.514;9.678;2023-11-18T03:30:50;99610.22;;;-3.44;100.00
29903;BME280;30288;50.514;9.678;2023-11-18T03:32:55;99607.69;;;-3.46;100.00
29903;BME280;30288;50.514;9.678;2023-11-18T03:35:00;99618.09;;;-3.32;100.00
29903;BME280;30288;50.514;9.678;2023-11-18T03:37:03;99616.94;;;-3.40;100.00
29903;BME280;30288;50.514;9.678;2023-11-18T03:39:09;99615.03;;;-3.47;100.00
29903;BME280;30288;50.514;9.678;2023-11-18T03:41:15;99613.06;;;-3.55;100.00
29903;BME280;30288;50.514;9.678;2023-11-18T03:43:20;99612.13;;;-3.37;100.00
29903;BME280;30288;50.514;9.678;2023-11-18T03:45:26;99611.81;;;-3.26;100.00
29903;BME280;30288;50.514;9.678;2023-11-18T03:47:31;99611.09;;;-3.23;100.00
29903;BME280;30288;50.514;9.678;2023-11-18T03:49:39;99610.97;;;-3.26;100.00
29903;BME280;30288;50.514;9.678;2023-11-18T03:51:44;99612.47;;;-3.30;100.00
29903;BME280;30288;50.514;9.678;2023-11-18T03:53:50;99609.94;;;-3.31;100.00
29903;BME280;30288;50.514;9.678;2023-11-18T03:55:55;99596.34;;;-3.42;100.00
29903;BME280;30288;50.514;9.678;2023-11-18T03:58:00;99591.94;;;-3.49;100.00
29903;BME280;30288;50.514;9.678;2023-11-18T04:00:08;99596.59;;;-3.56;100.00
29903;BME280;30288;50.514;9.678;2023-11-18T04:02:14;99589.03;;;-3.60;100.00
29903;BME280;30288;50.514;9.678;2023-11-18T04:04:20;99598.28;;;-3.55;100.00
29903;BME280;30288;50.514;9.678;2023-11-18T04:06:28;99594.81;;;-3.60;100.00
29903;BME280;30288;50.514;9.678;2023-11-18T04:08:34;99594.03;;;-3.59;100.00
29903;BME280;30288;50.514;9.678;2023-11-18T04:10:40;99587.75;;;-3.52;100.00
29903;BME280;30288;50.514;9.678;2023-11-18T04:12:43;99594.34;;;-3.51;100.00
29903;BME280;30288;50.514;9.678;2023-11-18T04:14:49;99601.13;;;-3.45;100.00
29903;BME280;30288;50.514;9.678;2023-11-18T04:16:55;99602.81;;;-3.44;100.00
29903;BME280;30288;50.514;9.678;2023-11-18T04:19:00;99608.53;;;-3.45;100.00
29903;BME280;30288;50.514;9.678;2023-11-18T04:21:06;99607.94;;;-3.40;100.00
29903;BME280;30288;50.514;9.678;2023-11-18T04:23:15;99608.25;;;-3.32;100.00
29903;BME280;30288;50.514;9.678;2023-11-18T04:25:21;99608.09;;;-3.16;100.00
29903;BME280;30288;50.514;9.678;2023-11-18T04:27:24;99607.97;;;-3.19;100.00
29903;BME280;30288;50.514;9.678;2023-11-18T04:29:29;99601.84;;;-3.08;100.00
29903;BME280;30288;50.514;9.678;2023-11-18T04:31:35;99601.38;;;-3.20;100.00
29903;BME280;30288;50.514;9.678;2023-11-18T04:33:40;99597.75;;;-3.28;100.00
29903;BME280;30288;50.514;9.678;2023-11-18T04:35:46;99601.38;;;-3.20;100.00
29903;BME280;30288;50.514;9.678;2023-11-18T04:37:51;99603.06;;;-3.19;100.00
29903;BME280;30288;50.514;9.678;2023-11-18T04:40:01;99602.69;;;-3.28;100.00
29903;BME280;30288;50.514;9.678;2023-11-18T04:42:05;99595.81;;;-3.35;100.00
29903;BME280;30288;50.514;9.678;2023-11-18T04:44:11;99601.88;;;-3.27;100.00
29903;BME280;30288;50.514;9.678;2023-11-18T04:46:19;99602.53;;;-3.31;100.00
29903;BME280;30288;50.514;9.678;2023-11-18T04:48:24;99598.72;;;-3.25;100.00
29903;BME280;30288;50.514;9.678;2023-11-18T04:50:31;99592.69;;;-3.31;100.00
29903;BME280;30288;50.514;9.678;2023-11-18T04:52:36;99597.97;;;-3.43;100.00
29903;BME280;30288;50.514;9.678;2023-11-18T04:54:42;99592.78;;;-3.49;100.00
29903;BME280;30288;50.514;9.678;2023-11-18T04:56:48;99589.34;;;-3.33;100.00
29903;BME280;30288;50.514;9.678;2023-11-18T04:58:53;99593.75;;;-3.45;100.00
29903;BME280;30288;50.514;9.678;2023-11-18T05:00:58;99592.31;;;-3.40;100.00
29903;BME280;30288;50.514;9.678;2023-11-18T05:03:04;99596.78;;;-3.32;100.00
29903;BME280;30288;50.514;9.678;2023-11-18T05:05:08;99589.56;;;-3.27;100.00
29903;BME280;30288;50.514;9.678;2023-11-18T05:07:13;99590.19;;;-3.33;100.00
29903;BME280;30288;50.514;9.678;2023-11-18T05:09:20;99597.16;;;-3.42;100.00
29903;BME280;30288;50.514;9.678;2023-11-18T05:11:25;99601.69;;;-3.53;100.00
29903;BME280;30288;50.514;9.678;2023-11-18T05:13:32;99601.03;;;-3.68;100.00
29903;BME280;30288;50.514;9.678;2023-11-18T05:15:39;99607.25;;;-3.76;100.00
29903;BME280;30288;50.514;9.678;2023-11-18T05:17:44;99607.25;;;-3.76;100.00
29903;BME280;30288;50.514;9.678;2023-11-18T05:19:50;99603.69;;;-3.63;100.00
29903;BME280;30288;50.514;9.678;2023-11-18T05:21:55;99602.97;;;-3.61;100.00
29903;BME280;30288;50.514;9.678;2023-11-18T05:24:02;99601.78;;;-3.49;100.00
29903;BME280;30288;50.514;9.678;2023-11-18T05:26:07;99593.50;;;-3.52;100.00
29903;BME280;30288;50.514;9.678;2023-11-18T05:28:13;99594.16;;;-3.56;100.00
29903;BME280;30288;50.514;9.678;2023-11-18T05:30:18;99590.66;;;-3.61;100.00
29903;BME280;30288;50.514;9.678;2023-11-18T05:32:27;99583.03;;;-3.67;100.00
29903;BME280;30288;50.514;9.678;2023-11-18T05:34:32;99586.47;;;-3.82;100.00
29903;BME280;30288;50.514;9.678;2023-11-18T05:36:37;99578.53;;;-3.75;100.00
29903;BME280;30288;50.514;9.678;2023-11-18T05:38:43;99574.94;;;-3.83;100.00
29903;BME280;30288;50.514;9.678;2023-11-18T05:40:50;99585.22;;;-3.92;100.00
29903;BME280;30288;50.514;9.678;2023-11-18T05:42:59;99578.69;;;-3.91;100.00
29903;BME280;30288;50.514;9.678;2023-11-18T05:45:09;99577.78;;;-3.93;100.00
29903;BME280;30288;50.514;9.678;2023-11-18T05:47:23;99568.47;;;-3.81;100.00
29903;BME280;30288;50.514;9.678;2023-11-18T05:49:28;99563.34;;;-3.67;100.00
29903;BME280;30288;50.514;9.678;2023-11-18T05:51:32;99574.19;;;-3.42;100.00
29903;BME280;30288;50.514;9.678;2023-11-18T05:53:40;99567.22;;;-3.53;100.00
29903;BME280;30288;50.514;9.678;2023-11-18T05:55:48;99574.44;;;-3.56;100.00
29903;BME280;30288;50.514;9.678;2023-11-18T05:57:54;99562.63;;;-3.64;100.00
29903;BME280;30288;50.514;9.678;2023-11-18T05:59:59;99566.84;;;-3.62;100.00
29903;BME280;30288;50.514;9.678;2023-11-18T06:02:13;99565.72;;;-3.68;100.00
29903;BME280;30288;50.514;9.678;2023-11-18T06:04:23;99570.78;;;-3.84;100.00
29903;BME280;30288;50.514;9.678;2023-11-18T06:06:29;99575.56;;;-3.87;100.00
29903;BME280;30288;50.514;9.678;2023-11-18T06:08:35;99570.16;;;-3.80;100.00
29903;BME280;30288;50.514;9.678;2023-11-18T06:10:41;99576.53;;;-3.84;100.00
29903;BME280;30288;50.514;9.678;2023-11-18T06:12:47;99573.84;;;-3.90;100.00
29903;BME280;30288;50.514;9.678;2023-11-18T06:14:52;99572.81;;;-3.76;100.00
29903;BME280;30288;50.514;9.678;2023-11-18T06:16:57;99574.84;;;-3.66;100.00
29903;BME280;30288;50.514;9.678;2023-11-18T06:19:03;99577.59;;;-3.79;100.00
29903;BME280;30288;50.514;9.678;2023-11-18T06:21:13;99566.28;;;-3.55;100.00
29903;BME280;30288;50.514;9.678;2023-11-18T06:23:19;99567.41;;;-3.67;100.00
29903;BME280;30288;50.514;9.678;2023-11-18T06:25:25;99562.81;;;-3.79;100.00
29903;BME280;30288;50.514;9.678;2023-11-18T06:27:32;99565.53;;;-3.92;100.00
29903;BME280;30288;50.514;9.678;2023-11-18T06:29:37;99568.69;;;-3.75;100.00
29903;BME280;30288;50.514;9.678;2023-11-18T06:31:43;99571.22;;;-3.74;100.00
29903;BME280;30288;50.514;9.678;2023-11-18T06:33:48;99561.00;;;-3.83;100.00
29903;BME280;30288;50.514;9.678;2023-11-18T06:35:51;99564.44;;;-3.99;100.00
29903;BME280;30288;50.514;9.678;2023-11-18T06:38:00;99570.06;;;-3.63;100.00
29903;BME280;30288;50.514;9.678;2023-11-18T06:40:07;99560.34;;;-3.60;100.00
29903;BME280;30288;50.514;9.678;2023-11-18T06:42:19;99556.84;;;-3.65;100.00
29903;BME280;30288;50.514;9.678;2023-11-18T06:44:26;99553.59;;;-3.44;100.00
29903;BME280;30288;50.514;9.678;2023-11-18T06:46:32;99555.59;;;-3.55;100.00
29903;BME280;30288;50.514;9.678;2023-11-18T06:48:37;99557.84;;;-3.61;100.00
29903;BME280;30288;50.514;9.678;2023-11-18T06:50:43;99556.84;;;-3.65;100.00
29903;BME280;30288;50.514;9.678;2023-11-18T06:52:49;99562.16;;;-3.56;100.00
29903;BME280;30288;50.514;9.678;2023-11-18T06:54:56;99564.38;;;-3.41;100.00
29903;BME280;30288;50.514;9.678;2023-11-18T06:57:01;99579.50;;;-3.33;100.00
29903;BME280;30288;50.514;9.678;2023-11-18T06:59:07;99586.06;;;-3.32;100.00
29903;BME280;30288;50.514;9.678;2023-11-18T07:01:13;99594.50;;;-3.27;100.00
29903;BME280;30288;50.514;9.678;2023-11-18T07:03:18;99593.19;;;-3.19;100.00
29903;BME280;30288;50.514;9.678;2023-11-18T07:05:24;99598.59;;;-3.07;100.00
29903;BME280;30288;50.514;9.678;2023-11-18T07:07:29;99593.09;;;-2.81;100.00
29903;BME280;30288;50.514;9.678;2023-11-18T07:09:35;99602.94;;;-2.81;100.00
29903;BME280;30288;50.514;9.678;2023-11-18T07:11:44;99614.97;;;-2.68;100.00
29903;BME280;30288;50.514;9.678;2023-11-18T07:13:51;99626.84;;;-2.57;100.00
29903;BME280;30288;50.514;9.678;2023-11-18T07:15:59;99623.78;;;-2.52;100.00
29903;BME280;30288;50.514;9.678;2023-11-18T07:18:06;99631.13;;;-2.31;100.00
29903;BME280;30288;50.514;9.678;2023-11-18T07:20:11;99619.53;;;-2.11;100.00
29903;BME280;30288;50.514;9.678;2023-11-18T07:22:17;99604.84;;;-1.85;100.00
29903;BME280;30288;50.514;9.678;2023-11-18T07:24:23;99597.13;;;-1.71;100.00
29903;BME280;30288;50.514;9.678;2023-11-18T07:26:25;99600.91;;;-1.57;100.00
29903;BME280;30288;50.514;9.678;2023-11-18T07:28:33;99601.22;;;-1.48;100.00
29903;BME280;30288;50.514;9.678;2023-11-18T07:30:39;99603.28;;;-1.35;100.00
29903;BME280;30288;50.514;9.678;2023-11-18T07:32:44;99614.94;;;-1.31;100.00
29903;BME280;30288;50.514;9.678;2023-11-18T07:34:50;99608.63;;;-1.23;100.00
29903;BME280;30288;50.514;9.678;2023-11-18T07:36:57;99606.44;;;-1.14;100.00
29903;BME280;30288;50.514;9.678;2023-11-18T07:39:02;99609.13;;;-1.08;100.00
29903;BME280;30288;50.514;9.678;2023-11-18T07:41:18;99614.91;;;-1.07;100.00
29903;BME280;30288;50.514;9.678;2023-11-18T07:43:37;99628.19;;;-1.04;100.00
29903;BME280;30288;50.514;9.678;2023-11-18T07:45:43;99624.22;;;-1.00;100.00
29903;BME280;30288;50.514;9.678;2023-11-18T07:47:46;99615.50;;;-0.89;100.00
29903;BME280;30288;50.514;9.678;2023-11-18T07:49:53;99613.06;;;-0.88;100.00
29903;BME280;30288;50.514;9.678;2023-11-18T07:51:58;99610.81;;;-0.80;100.00
29903;BME280;30288;50.514;9.678;2023-11-18T07:54:01;99608.63;;;-0.72;100.00
29903;BME280;30288;50.514;9.678;2023-11-18T07:56:07;99613.69;;;-0.68;100.00
29903;BME280;30288;50.514;9.678;2023-11-18T07:58:14;99608.69;;;-0.69;100.00
29903;BME280;30288;50.514;9.678;2023-11-18T08:00:23;99606.16;;;-0.71;100.00
29903;BME280;30288;50.514;9.678;2023-11-18T08:02:28;99612.94;;;-0.65;100.00
29903;BME280;30288;50.514;9.678;2023-11-18T08:04:31;99610.75;;;-0.56;100.00
29903;BME280;30288;50.514;9.678;2023-11-18T08:06:38;99601.44;;;-0.36;100.00
29903;BME280;30288;50.514;9.678;2023-11-18T08:08:40;99598.31;;;-0.31;100.00
29903;BME280;30288;50.514;9.678;2023-11-18T08:10:45;99592.19;;;-0.14;100.00
29903;BME280;30288;50.514;9.678;2023-11-18T08:12:50;99596.72;;;-0.01;100.00
29903;BME280;30288;50.514;9.678;2023-11-18T08:14:56;99601.63;;;-0.02;100.00
29903;BME280;30288;50.514;9.678;2023-11-18T08:17:04;99612.63;;;0.08;100.00
29903;BME280;30288;50.514;9.678;2023-11-18T08:19:10;99616.06;;;0.13;100.00
29903;BME280;30288;50.514;9.678;2023-11-18T08:21:15;99617.81;;;0.17;100.00
29903;BME280;30288;50.514;9.678;2023-11-18T08:23:20;99603.44;;;0.35;100.00
29903;BME280;30288;50.514;9.678;2023-11-18T08:25:25;99602.00;;;0.43;100.00
29903;BME280;30288;50.514;9.678;2023-11-18T08:27:28;99612.94;;;0.50;100.00
29903;BME280;30288;50.514;9.678;2023-11-18T08:29:33;99611.47;;;0.56;100.00
29903;BME280;30288;50.514;9.678;2023-11-18T08:31:39;99615.59;;;0.57;100.00
29903;BME280;30288;50.514;9.678;2023-11-18T08:33:49;99616.66;;;0.67;100.00
29903;BME280;30288;50.514;9.678;2023-11-18T08:35:56;99610.97;;;0.69;100.00
29903;BME280;30288;50.514;9.678;2023-11-18T08:37:59;99612.25;;;0.88;100.00
29903;BME280;30288;50.514;9.678;2023-11-18T08:40:08;99605.16;;;1.02;100.00
29903;BME280;30288;50.514;9.678;2023-11-18T08:42:17;99605.47;;;1.14;100.00
29903;BME280;30288;50.514;9.678;2023-11-18T08:44:22;99601.31;;;1.13;100.00
29903;BME280;30288;50.514;9.678;2023-11-18T08:46:28;99601.88;;;1.03;100.00
29903;BME280;30288;50.514;9.678;2023-11-18T08:48:30;99594.59;;;1.09;100.00
29903;BME280;30288;50.514;9.678;2023-11-18T08:50:39;99593.72;;;1.07;100.00
29903;BME280;30288;50.514;9.678;2023-11-18T08:52:46;99588.59;;;1.01;100.00
29903;BME280;30288;50.514;9.678;2023-11-18T08:54:50;99580.34;;;1.02;100.00
29903;BME280;30288;50.514;9.678;2023-11-18T08:57:08;99572.19;;;1.06;100.00
29903;BME280;30288;50.514;9.678;2023-11-18T08:59:26;99570.38;;;0.99;100.00
29903;BME280;30288;50.514;9.678;2023-11-18T09:01:32;99567.00;;;0.97;100.00
29903;BME280;30288;50.514;9.678;2023-11-18T09:03:38;99562.81;;;0.94;100.00
29903;BME280;30288;50.514;9.678;2023-11-18T09:05:48;99569.63;;;1.03;100.00
29903;BME280;30288;50.514;9.678;2023-11-18T09:07:59;99568.28;;;1.15;100.00
29903;BME280;30288;50.514;9.678;2023-11-18T09:10:08;99570.16;;;1.25;100.00
29903;BME280;30288;50.514;9.678;2023-11-18T09:12:14;99573.72;;;1.37;100.00
29903;BME280;30288;50.514;9.678;2023-11-18T09:14:21;99576.31;;;1.43;100.00
29903;BME280;30288;50.514;9.678;2023-11-18T09:16:27;99571.41;;;1.44;100.00
29903;BME280;30288;50.514;9.678;2023-11-18T09:18:33;99568.38;;;1.57;100.00
29903;BME280;30288;50.514;9.678;2023-11-18T09:20:44;99572.16;;;1.81;100.00
29903;BME280;30288;50.514;9.678;2023-11-18T09:22:50;99574.13;;;1.95;100.00
29903;BME280;30288;50.514;9.678;2023-11-18T09:24:58;99579.59;;;2.21;100.00
29903;BME280;30288;50.514;9.678;2023-11-18T09:27:04;99584.78;;;2.33;100.00
29903;BME280;30288;50.514;9.678;2023-11-18T09:29:11;99585.63;;;2.32;100.00
29903;BME280;30288;50.514;9.678;2023-11-18T09:31:21;99592.69;;;2.57;100.00
29903;BME280;30288;50.514;9.678;2023-11-18T09:33:27;99591.41;;;2.78;100.00
29903;BME280;30288;50.514;9.678;2023-11-18T09:35:37;99601.03;;;3.07;100.00
29903;BME280;30288;50.514;9.678;2023-11-18T09:37:42;99595.44;;;3.24;100.00
29903;BME280;30288;50.514;9.678;2023-11-18T09:39:51;99592.41;;;3.41;100.00
29903;BME280;30288;50.514;9.678;2023-11-18T09:42:00;99597.66;;;3.60;100.00
29903;BME280;30288;50.514;9.678;2023-11-18T09:44:06;99592.09;;;3.79;100.00
29903;BME280;30288;50.514;9.678;2023-11-18T09:46:16;99603.91;;;3.95;100.00
29903;BME280;30288;50.514;9.678;2023-11-18T09:48:24;99598.13;;;3.96;100.00
29903;BME280;30288;50.514;9.678;2023-11-18T09:50:31;99586.75;;;4.16;100.00
29903;BME280;30288;50.514;9.678;2023-11-18T09:52:46;99592.72;;;4.33;100.00
29903;BME280;30288;50.514;9.678;2023-11-18T09:55:02;99596.91;;;4.34;100.00
29903;BME280;30288;50.514;9.678;2023-11-18T09:57:26;99592.69;;;4.27;100.00
29903;BME280;30288;50.514;9.678;2023-11-18T09:59:43;99583.78;;;4.51;100.00
29903;BME280;30288;50.514;9.678;2023-11-18T10:01:58;99586.38;;;4.63;100.00
29903;BME280;30288;50.514;9.678;2023-11-18T10:04:05;99581.53;;;4.78;100.00
29903;BME280;30288;50.514;9.678;2023-11-18T10:06:14;99583.31;;;4.88;100.00
29903;BME280;30288;50.514;9.678;2023-11-18T10:08:18;99580.78;;;4.83;100.00
29903;BME280;30288;50.514;9.678;2023-11-18T10:10:31;99574.91;;;4.81;100.00
29903;BME280;30288;50.514;9.678;2023-11-18T10:12:41;99575.00;;;4.89;100.00
29903;BME280;30288;50.514;9.678;2023-11-18T10:14:47;99577.63;;;5.06;100.00
29903;BME280;30288;50.514;9.678;2023-11-18T10:16:54;99587.38;;;4.78;100.00
29903;BME280;30288;50.514;9.678;2023-11-18T10:19:03;99578.47;;;5.09;100.00
29903;BME280;30288;50.514;9.678;2023-11-18T10:21:11;99558.63;;;5.27;100.00
29903;BME280;30288;50.514;9.678;2023-11-18T10:23:22;99564.56;;;5.48;100.00
29903;BME280;30288;50.514;9.678;2023-11-18T10:25:32;99560.50;;;5.62;100.00
29903;BME280;30288;50.514;9.678;2023-11-18T10:27:37;99557.06;;;5.45;100.00
29903;BME280;30288;50.514;9.678;2023-11-18T10:29:42;99552.09;;;5.49;100.00
29903;BME280;30288;50.514;9.678;2023-11-18T10:31:49;99549.53;;;5.39;100.00
29903;BME280;30288;50.514;9.678;2023-11-18T10:33:56;99553.72;;;5.40;100.00
29903;BME280;30288;50.514;9.678;2023-11-18T10:36:16;99552.09;;;5.45;100.00
29903;BME280;30288;50.514;9.678;2023-11-18T10:38:24;99545.56;;;5.74;100.00
29903;BME280;30288;50.514;9.678;2023-11-18T10:40:35;99543.03;;;5.66;100.00
29903;BME280;30288;50.514;9.678;2023-11-18T10:42:40;99540.56;;;5.77;100.00
29903;BME280;30288;50.514;9.678;2023-11-18T10:44:58;99544.81;;;5.87;100.00
29903;BME280;30288;50.514;9.678;2023-11-18T10:47:04;99544.84;;;5.96;100.00
29903;BME280;30288;50.514;9.678;2023-11-18T10:49:16;99544.03;;;6.02;100.00
29903;BME280;30288;50.514;9.678;2023-11-18T10:51:21;99542.38;;;6.02;100.00
29903;BME280;30288;50.514;9.678;2023-11-18T10:53:29;99534.09;;;6.12;100.00
29903;BME280;30288;50.514;9.678;2023-11-18T10:55:38;99524.94;;;6.25;100.00
29903;BME280;30288;50.514;9.678;2023-11-18T10:57:44;99523.25;;;6.33;100.00
29903;BME280;30288;50.514;9.678;2023-11-18T10:59:58;99513.28;;;6.51;100.00
29903;BME280;30288;50.514;9.678;2023-11-18T11:02:18;99510.78;;;6.53;100.00
29903;BME280;30288;50.514;9.678;2023-11-18T11:04:26;99518.31;;;6.67;100.00
29903;BME280;30288;50.514;9.678;2023-11-18T11:06:49;99520.81;;;6.71;100.00